Berriozar, Spain
Current Conditions -  °F | °C
As of 12:30 PM on Saturday 25 Oct 2014 (Local Time) from LEPP Reporting Station
Clear Clear  
Wind Chill: 64°   Ceiling: Unl
Heat Index: 64°   Visibility: 6mi
Dew Point: 50°   Wind: 0mph
Humidity: 59%   Direction: NA
Pressure: 30.21"   Gusts: NA
Location:  42.83°N, 1.67°W
Report Text: LEPP 251030Z 00000KT CAVOK 18/10 Q1023
Loading
Personal Weather Stations






























Interactive Weather Map
Tropical Storm Tracking
New forecast layout! Learn more

10-Day Weather Forecast

Advertisements
Track Severe Weather on mobile